createdAt,value
2018-09-01T00:01:27.639Z,31.7
2018-09-01T00:11:25.931Z,28.9
2018-09-01T00:21:26.129Z,29.1
2018-09-01T00:31:27.472Z,28.6
2018-09-01T00:41:26.359Z,27.4
2018-09-01T00:51:27.633Z,31.7
2018-09-01T01:01:27.049Z,36.1
2018-09-01T01:11:27.972Z,38.3
2018-09-01T01:21:26.393Z,39.7
2018-09-01T01:31:28.214Z,38.2
2018-09-01T01:41:26.509Z,35.5
2018-09-01T01:51:27.953Z,39.4
2018-09-01T02:01:26.949Z,36.2
2018-09-01T02:11:27.048Z,36.0
2018-09-01T02:21:27.223Z,36.5
2018-09-01T02:31:28.110Z,34.5
2018-09-01T02:41:27.698Z,32.3
2018-09-01T02:51:26.027Z,36.5
2018-09-01T03:01:27.141Z,39.6
2018-09-01T03:11:27.162Z,32.7
2018-09-01T03:21:27.662Z,43.3
2018-09-01T03:31:26.863Z,35.4
2018-09-01T03:41:27.524Z,32.9
2018-09-01T03:51:27.592Z,41.5
2018-09-01T04:01:27.283Z,31.6
2018-09-01T04:11:26.592Z,37.0
2018-09-01T04:21:26.817Z,34.4
2018-09-01T04:31:25.752Z,30.9
2018-09-01T04:41:25.877Z,32.1
2018-09-01T04:51:29.792Z,34.9
2018-09-01T05:01:26.173Z,33.6
2018-09-01T05:11:27.128Z,27.7
2018-09-01T05:21:26.567Z,31.4
2018-09-01T05:31:28.027Z,28.4
2018-09-01T05:41:27.259Z,34.1
2018-09-01T05:51:27.864Z,37.3
2018-09-01T06:01:26.903Z,31.1
2018-09-01T06:11:26.978Z,29.6
2018-09-01T06:21:26.210Z,33.1
2018-09-01T06:31:26.307Z,33.5
2018-09-01T06:41:26.813Z,30.2
2018-09-01T06:51:28.573Z,25.6
2018-09-01T07:01:29.013Z,37.5
2018-09-01T07:11:26.489Z,41.3
2018-09-01T07:21:27.936Z,43.1
2018-09-01T07:31:27.965Z,29.2
2018-09-01T07:41:28.033Z,30.5
2018-09-01T07:51:26.150Z,33.0
2018-09-01T08:01:27.655Z,32.0
2018-09-01T08:11:27.467Z,38.0
2018-09-01T08:21:25.971Z,38.3
2018-09-01T08:31:29.628Z,37.8
2018-09-01T08:41:26.830Z,37.5
2018-09-01T08:51:28.396Z,41.5
2018-09-01T09:01:26.484Z,35.1
2018-09-01T09:11:26.602Z,36.9
2018-09-01T09:21:29.754Z,35.5
2018-09-01T09:31:26.101Z,37.0
2018-09-01T09:41:26.161Z,34.3
2018-09-01T09:51:31.714Z,36.4
2018-09-01T10:01:25.876Z,31.0
2018-09-01T10:11:26.344Z,28.3
2018-09-01T10:21:28.049Z,29.7
2018-09-01T10:31:26.706Z,31.9
2018-09-01T10:41:26.298Z,30.1
2018-09-01T10:51:27.028Z,27.8
2018-09-01T11:01:26.102Z,26.9
2018-09-01T11:11:26.149Z,29.1
2018-09-01T11:21:26.731Z,26.2
2018-09-01T11:31:26.642Z,27.7
2018-09-01T11:41:25.755Z,23.6
2018-09-01T11:51:26.713Z,22.6
2018-09-01T12:01:26.210Z,29.5
2018-09-01T12:11:28.657Z,22.8
2018-09-01T12:21:26.230Z,23.7
2018-09-01T12:31:28.418Z,24.0
2018-09-01T12:41:27.014Z,21.1
2018-09-01T12:51:27.143Z,20.2
2018-09-01T13:01:26.460Z,25.9
2018-09-01T13:11:32.563Z,24.3
2018-09-01T13:21:31.124Z,19.7
2018-09-01T13:31:32.687Z,18.7
2018-09-01T13:41:31.596Z,24.3
2018-09-01T13:51:32.843Z,21.2
2018-09-01T14:01:34.129Z,22.2
2018-09-01T14:11:32.640Z,30.8
2018-09-01T14:21:31.410Z,22.1
2018-09-01T14:31:33.624Z,21.2
2018-09-01T14:41:31.142Z,21.6
2018-09-01T14:51:26.397Z,22.2
2018-09-01T15:01:32.637Z,18.1
2018-09-01T15:11:27.002Z,24.7
2018-09-01T15:21:26.911Z,19.6
2018-09-01T15:31:25.944Z,24.1
2018-09-01T15:41:26.024Z,22.3
2018-09-01T15:51:26.721Z,21.6
2018-09-01T16:01:26.021Z,21.3
2018-09-01T16:11:26.015Z,19.7
2018-09-01T16:21:27.885Z,19.9
2018-09-01T16:31:27.375Z,18.9
2018-09-01T16:41:26.537Z,20.9
2018-09-01T16:51:26.831Z,21.7
2018-09-01T17:01:26.675Z,24.2
2018-09-01T17:11:26.228Z,25.2
2018-09-01T17:21:26.635Z,24.5
2018-09-01T17:31:27.519Z,29.9
2018-09-01T17:41:28.748Z,27.8
2018-09-01T17:51:27.640Z,29.0
2018-09-01T18:01:25.647Z,26.9
2018-09-01T18:11:26.932Z,26.0
2018-09-01T18:21:26.101Z,29.8
2018-09-01T18:31:26.454Z,26.8
2018-09-01T18:41:26.858Z,38.4
2018-09-01T18:51:26.121Z,29.7
2018-09-01T19:01:26.747Z,27.8
2018-09-01T19:11:25.728Z,28.8
2018-09-01T19:21:25.940Z,28.1
2018-09-01T19:31:27.413Z,27.0
2018-09-01T19:41:28.648Z,25.1
2018-09-01T19:51:26.399Z,30.4
2018-09-01T20:01:26.876Z,25.4
2018-09-01T20:11:26.140Z,26.2
2018-09-01T20:21:27.700Z,26.1
2018-09-01T20:31:25.690Z,29.7
2018-09-01T20:41:26.189Z,26.0
2018-09-01T20:51:26.062Z,25.4
2018-09-01T21:01:26.628Z,29.6
2018-09-01T21:11:26.935Z,31.9
2018-09-01T21:21:27.809Z,29.6
2018-09-01T21:31:25.717Z,35.8
2018-09-01T21:41:25.977Z,33.7
2018-09-01T21:51:25.971Z,35.2
2018-09-01T22:01:26.966Z,33.2
2018-09-01T22:11:27.183Z,31.9
2018-09-01T22:21:26.760Z,34.6
2018-09-01T22:31:27.111Z,33.1
2018-09-01T22:41:26.582Z,37.5
2018-09-01T22:51:26.422Z,37.9
2018-09-01T23:01:26.623Z,34.1
2018-09-01T23:11:25.878Z,35.8
2018-09-01T23:21:27.854Z,35.1
2018-09-01T23:31:25.827Z,35.6
2018-09-01T23:41:26.202Z,36.0
2018-09-01T23:51:26.249Z,37.8
